createdAt,value
2018-09-21T00:01:18.720Z,95059.61
2018-09-21T00:03:53.000Z,95059.40
2018-09-21T00:06:22.148Z,95062.03
2018-09-21T00:08:51.009Z,95059.88
2018-09-21T00:11:20.204Z,95057.47
2018-09-21T00:13:49.621Z,95069.06
2018-09-21T00:16:18.921Z,95064.13
2018-09-21T00:18:47.647Z,95062.66
2018-09-21T00:21:16.620Z,95057.61
2018-09-21T00:23:45.288Z,95066.48
2018-09-21T00:26:13.927Z,95063.55
2018-09-21T00:28:42.562Z,95066.69
2018-09-21T00:31:11.206Z,95067.22
2018-09-21T00:33:39.873Z,95062.86
2018-09-21T00:36:08.915Z,95064.38
2018-09-21T00:38:37.560Z,95061.82
2018-09-21T00:41:06.245Z,95066.78
2018-09-21T00:43:34.935Z,95059.49
2018-09-21T00:46:03.623Z,95059.95
2018-09-21T00:48:32.257Z,95062.37
2018-09-21T00:51:00.941Z,95066.28
2018-09-21T00:53:29.592Z,95069.42
2018-09-21T00:55:58.247Z,95065.28
2018-09-21T00:58:26.886Z,95065.09
2018-09-21T01:00:55.515Z,95068.00
2018-09-21T01:03:24.148Z,95061.70
2018-09-21T01:05:52.744Z,95063.20
2018-09-21T01:08:21.404Z,95060.52
2018-09-21T01:10:50.999Z,95058.24
2018-09-21T01:13:19.635Z,95061.43
2018-09-21T01:15:48.477Z,95058.44
2018-09-21T01:18:17.726Z,95058.16
2018-09-21T01:20:46.385Z,95060.71
2018-09-21T01:23:15.025Z,95065.12
2018-09-21T01:25:43.702Z,95063.38
2018-09-21T01:28:12.319Z,95068.39
2018-09-21T01:30:40.953Z,95069.11
2018-09-21T01:33:09.600Z,95069.27
2018-09-21T01:35:38.374Z,95068.94
2018-09-21T01:38:07.101Z,95064.73
2018-09-21T01:40:35.800Z,95073.06
2018-09-21T01:43:04.540Z,95069.33
2018-09-21T01:45:33.200Z,95070.91
2018-09-21T01:48:01.908Z,95073.08
2018-09-21T01:50:30.557Z,95072.04
2018-09-21T01:52:59.188Z,95065.38
2018-09-21T01:55:27.827Z,95065.41
2018-09-21T01:57:56.446Z,95061.67
2018-09-21T02:00:25.069Z,95065.80
2018-09-21T02:02:53.695Z,95063.98
2018-09-21T02:05:22.378Z,95061.87
2018-09-21T02:07:51.012Z,95062.51
2018-09-21T02:10:19.730Z,95060.67
2018-09-21T02:12:48.423Z,95058.21
2018-09-21T02:15:17.066Z,95054.13
2018-09-21T02:17:45.727Z,95058.05
2018-09-21T02:20:14.374Z,95066.54
2018-09-21T02:22:42.995Z,95059.52
2018-09-21T02:25:11.636Z,95060.56
2018-09-21T02:27:40.239Z,95065.28
2018-09-21T02:30:08.937Z,95058.88
2018-09-21T02:32:37.609Z,95060.95
2018-09-21T02:35:06.468Z,95060.38
2018-09-21T02:37:35.071Z,95061.30
2018-09-21T02:40:03.787Z,95057.89
2018-09-21T02:42:32.460Z,95057.42
2018-09-21T02:45:01.093Z,95061.58
2018-09-21T02:47:29.703Z,95063.70
2018-09-21T02:49:58.335Z,95063.84
2018-09-21T02:52:26.979Z,95064.13
2018-09-21T02:54:55.601Z,95065.50
2018-09-21T02:57:24.265Z,95070.22
2018-09-21T02:59:52.908Z,95064.55
2018-09-21T03:02:21.617Z,95070.41
2018-09-21T03:04:53.980Z,95062.70
2018-09-21T03:07:23.208Z,95070.61
2018-09-21T03:09:51.883Z,95070.61
2018-09-21T03:12:20.611Z,95076.09
2018-09-21T03:14:49.380Z,95073.77
2018-09-21T03:17:18.039Z,95074.69
2018-09-21T03:19:46.687Z,95084.28
2018-09-21T03:22:15.329Z,95077.08
2018-09-21T03:24:43.968Z,95079.19
2018-09-21T03:27:12.634Z,95075.27
2018-09-21T03:29:41.295Z,95079.38
2018-09-21T03:32:09.959Z,95072.06
2018-09-21T03:34:38.613Z,95076.24
2018-09-21T03:37:07.279Z,95074.30
2018-09-21T03:39:36.030Z,95081.38
2018-09-21T03:42:04.728Z,95084.63
2018-09-21T03:44:33.468Z,95078.47
2018-09-21T03:47:02.160Z,95078.08
2018-09-21T03:49:30.796Z,95081.30
2018-09-21T03:51:59.452Z,95076.27
2018-09-21T03:54:28.089Z,95079.52
2018-09-21T03:56:56.738Z,95080.89
2018-09-21T03:59:25.417Z,95082.80
2018-09-21T04:01:54.063Z,95085.35
2018-09-21T04:04:22.750Z,95079.06
2018-09-21T04:06:51.538Z,95084.16
2018-09-21T04:09:20.184Z,95079.59
2018-09-21T04:11:48.856Z,95084.83
2018-09-21T04:14:17.547Z,95083.58
2018-09-21T04:16:46.183Z,95085.14
2018-09-21T04:19:14.923Z,95078.67
2018-09-21T04:21:43.576Z,95076.31
2018-09-21T04:24:12.943Z,95080.53
2018-09-21T04:26:41.621Z,95081.84
2018-09-21T04:31:44.107Z,95083.86
2018-09-21T04:34:12.747Z,95082.73
2018-09-21T04:36:41.407Z,95088.02
2018-09-21T04:39:11.680Z,95084.69
2018-09-21T04:41:40.362Z,95087.50
2018-09-21T04:44:09.530Z,95091.08
2018-09-21T04:46:38.701Z,95099.91
2018-09-21T04:49:07.624Z,95096.33
2018-09-21T04:51:36.244Z,95095.09
2018-09-21T04:54:04.958Z,95096.33
2018-09-21T04:56:33.716Z,95102.20
2018-09-21T04:59:02.374Z,95102.34
2018-09-21T05:01:31.077Z,95102.34
2018-09-21T05:03:59.701Z,95098.32
2018-09-21T05:06:28.402Z,95104.22
2018-09-21T05:08:57.060Z,95106.88
2018-09-21T05:11:25.727Z,95107.32
2018-09-21T05:13:54.477Z,95100.75
2018-09-21T05:16:24.084Z,95096.40
2018-09-21T05:18:52.835Z,95096.88
2018-09-21T05:21:21.466Z,95096.39
2018-09-21T05:23:50.095Z,95095.33
2018-09-21T05:26:18.767Z,95093.54
2018-09-21T05:28:47.563Z,95089.98
2018-09-21T05:31:16.207Z,95086.71
2018-09-21T05:33:44.839Z,95088.70
2018-09-21T05:36:13.500Z,95092.83
2018-09-21T05:38:42.158Z,95095.05
2018-09-21T05:41:10.798Z,95094.78
2018-09-21T05:43:39.443Z,95093.14
2018-09-21T05:46:08.283Z,95095.29
2018-09-21T05:48:36.910Z,95091.98
2018-09-21T05:51:05.563Z,95096.30
2018-09-21T05:53:34.230Z,95094.69
2018-09-21T05:56:02.964Z,95095.23
2018-09-21T05:58:31.651Z,95093.60
2018-09-21T06:01:00.276Z,95099.50
2018-09-21T06:03:28.967Z,95098.22
2018-09-21T06:05:57.638Z,95096.13
2018-09-21T06:08:26.350Z,95090.63
2018-09-21T06:10:54.985Z,95095.59
2018-09-21T06:13:23.700Z,95099.06
2018-09-21T06:15:52.360Z,95101.64
2018-09-21T06:18:21.131Z,95097.30
2018-09-21T06:20:49.859Z,95095.88
2018-09-21T06:23:18.521Z,95094.69
2018-09-21T06:25:47.226Z,95101.08
2018-09-21T06:28:15.931Z,95103.19
2018-09-21T06:30:44.577Z,95094.22
2018-09-21T06:33:13.240Z,95097.89
2018-09-21T06:35:41.937Z,95092.80
2018-09-21T06:38:10.644Z,95096.43
2018-09-21T06:40:39.374Z,95097.73
2018-09-21T06:43:08.104Z,95097.66
2018-09-21T06:45:36.785Z,95099.48
2018-09-21T06:48:06.660Z,95099.97
2018-09-21T06:50:35.376Z,95104.11
2018-09-21T06:53:04.074Z,95097.75
2018-09-21T06:55:33.232Z,95094.73
2018-09-21T06:58:02.125Z,95097.77
2018-09-21T07:00:30.773Z,95104.11
2018-09-21T07:02:59.414Z,95093.61
2018-09-21T07:05:28.153Z,95101.06
2018-09-21T07:07:56.850Z,95103.67
2018-09-21T07:10:25.573Z,95106.09
2018-09-21T07:12:54.243Z,95104.68
2018-09-21T07:15:22.944Z,95107.80
2018-09-21T07:17:51.571Z,95106.70
2018-09-21T07:20:20.258Z,95102.91
2018-09-21T07:22:48.950Z,95096.42
2018-09-21T07:25:17.786Z,95102.10
2018-09-21T07:27:46.484Z,95102.72
2018-09-21T07:30:19.077Z,95104.70
2018-09-21T07:32:47.877Z,95102.15
2018-09-21T07:35:16.599Z,95101.84
2018-09-21T07:37:45.263Z,95107.86
2018-09-21T07:40:14.045Z,95100.83
2018-09-21T07:42:42.734Z,95099.30
2018-09-21T07:45:11.402Z,95099.30
2018-09-21T07:47:40.161Z,95092.31
2018-09-21T07:50:08.968Z,95099.64
2018-09-21T07:52:37.692Z,95095.95
2018-09-21T07:55:06.406Z,95092.55
2018-09-21T07:57:35.104Z,95093.78
2018-09-21T08:00:05.086Z,95090.69
2018-09-21T08:02:33.795Z,95086.67
2018-09-21T08:05:02.480Z,95087.57
2018-09-21T08:07:31.196Z,95087.95
2018-09-21T08:09:59.852Z,95088.70
2018-09-21T08:12:28.568Z,95089.74
2018-09-21T08:14:57.224Z,95086.06
2018-09-21T08:17:25.920Z,95087.47
2018-09-21T08:19:54.592Z,95085.70
2018-09-21T08:22:23.256Z,95086.20
2018-09-21T08:24:52.043Z,95086.09
2018-09-21T08:27:21.027Z,95081.34
2018-09-21T08:29:49.944Z,95078.20
2018-09-21T08:32:18.630Z,95077.52
2018-09-21T08:34:47.404Z,95071.70
2018-09-21T08:37:16.144Z,95071.79
2018-09-21T08:39:44.829Z,95069.79
2018-09-21T08:42:13.595Z,95069.47
2018-09-21T08:44:42.348Z,95071.63
2018-09-21T08:47:11.105Z,95062.72
2018-09-21T08:49:39.861Z,95064.41
2018-09-21T08:52:08.696Z,95066.75
2018-09-21T08:54:37.423Z,95057.73
2018-09-21T08:57:06.147Z,95057.44
2018-09-21T08:59:34.938Z,95055.03
2018-09-21T09:02:03.642Z,95054.00
2018-09-21T09:04:32.323Z,95055.02
2018-09-21T09:07:00.978Z,95050.75
2018-09-21T09:09:29.654Z,95049.20
2018-09-21T09:11:58.395Z,95052.45
2018-09-21T09:14:27.125Z,95053.95
2018-09-21T09:16:55.779Z,95046.89
2018-09-21T09:19:24.470Z,95049.05
2018-09-21T09:21:53.176Z,95046.72
2018-09-21T09:24:21.889Z,95038.92
2018-09-21T09:26:50.534Z,95035.51
2018-09-21T09:29:19.141Z,95036.79
2018-09-21T09:31:47.810Z,95035.92
2018-09-21T09:34:16.508Z,95033.52
2018-09-21T09:36:45.243Z,95031.20
2018-09-21T09:39:14.504Z,95027.52
2018-09-21T09:41:43.137Z,95027.02
2018-09-21T09:44:12.116Z,95024.98
2018-09-21T09:46:41.048Z,95028.39
2018-09-21T09:49:09.880Z,95030.20
2018-09-21T09:51:38.648Z,95027.61
2018-09-21T09:54:07.516Z,95021.23
2018-09-21T09:56:36.361Z,95018.75
2018-09-21T09:59:05.076Z,95012.57
2018-09-21T10:01:33.825Z,95013.65
2018-09-21T10:04:02.685Z,95016.17
2018-09-21T10:06:31.759Z,95017.42
2018-09-21T10:09:00.418Z,95011.83
2018-09-21T10:11:29.672Z,95014.59
2018-09-21T10:13:58.411Z,95011.63
2018-09-21T10:16:27.168Z,95012.81
2018-09-21T10:18:56.000Z,95009.41
2018-09-21T10:21:24.809Z,95009.77
2018-09-21T10:23:53.544Z,95001.56
2018-09-21T10:26:22.248Z,95008.31
2018-09-21T10:28:51.186Z,95003.54
2018-09-21T10:31:20.145Z,95003.08
2018-09-21T10:33:49.044Z,94999.39
2018-09-21T10:36:17.736Z,94999.18
2018-09-21T10:38:46.502Z,94990.25
2018-09-21T10:41:15.307Z,94991.16
2018-09-21T10:43:44.045Z,94991.00
2018-09-21T10:46:12.788Z,94983.34
2018-09-21T10:48:41.533Z,94978.06
2018-09-21T10:51:10.251Z,94978.09
2018-09-21T10:53:39.204Z,94966.88
2018-09-21T10:56:08.019Z,94968.45
2018-09-21T10:58:36.871Z,94966.61
2018-09-21T11:01:05.668Z,94963.39
2018-09-21T11:03:34.472Z,94961.18
2018-09-21T11:06:03.187Z,94957.73
2018-09-21T11:08:31.961Z,94958.83
2018-09-21T11:11:00.632Z,94956.90
2018-09-21T11:13:29.345Z,94960.56
2018-09-21T11:15:58.048Z,94954.93
2018-09-21T11:18:26.730Z,94953.88
2018-09-21T11:20:55.709Z,94946.63
2018-09-21T11:23:24.452Z,94949.50
2018-09-21T11:25:53.229Z,94948.09
2018-09-21T11:28:21.981Z,94946.61
2018-09-21T11:30:50.666Z,94943.51
2018-09-21T11:33:19.427Z,94942.37
2018-09-21T11:35:48.197Z,94944.77
2018-09-21T11:38:16.979Z,94935.47
2018-09-21T11:40:45.651Z,94938.45
2018-09-21T11:43:14.344Z,94935.34
2018-09-21T11:45:43.213Z,94934.50
2018-09-21T11:48:11.985Z,94929.42
2018-09-21T11:50:40.752Z,94924.04
2018-09-21T11:53:09.487Z,94927.88
2018-09-21T11:55:38.311Z,94922.58
2018-09-21T11:58:07.832Z,94924.86
2018-09-21T12:00:36.744Z,94928.13
2018-09-21T12:03:05.469Z,94923.47
2018-09-21T12:05:34.665Z,94920.77
2018-09-21T12:08:03.560Z,94916.13
2018-09-21T12:10:32.405Z,94914.12
2018-09-21T12:13:01.149Z,94917.55
2018-09-21T12:15:29.870Z,94920.81
2018-09-21T12:17:58.633Z,94917.92
2018-09-21T12:20:27.724Z,94914.95
2018-09-21T12:22:56.402Z,94906.25
2018-09-21T12:25:25.164Z,94907.58
2018-09-21T12:27:53.845Z,94906.80
2018-09-21T12:30:22.591Z,94906.83
2018-09-21T12:32:51.364Z,94903.31
2018-09-21T12:35:20.123Z,94897.22
2018-09-21T12:37:48.852Z,94903.09
2018-09-21T12:40:17.644Z,94901.98
2018-09-21T12:42:46.307Z,94897.19
2018-09-21T12:45:15.105Z,94892.36
2018-09-21T12:47:43.775Z,94893.20
2018-09-21T12:50:12.534Z,94888.43
2018-09-21T12:52:41.310Z,94890.88
2018-09-21T12:55:10.197Z,94888.16
2018-09-21T12:57:38.975Z,94887.85
2018-09-21T13:00:10.909Z,94888.12
2018-09-21T13:02:40.039Z,94889.44
2018-09-21T13:05:08.771Z,94885.44
2018-09-21T13:07:37.496Z,94889.69
2018-09-21T13:10:06.364Z,94889.88
2018-09-21T13:12:35.132Z,94897.09
2018-09-21T13:15:03.977Z,94896.95
2018-09-21T13:17:32.632Z,94891.05
2018-09-21T13:20:01.357Z,94888.64
2018-09-21T13:22:30.307Z,94889.84
2018-09-21T13:24:59.099Z,94885.50
2018-09-21T13:27:27.831Z,94881.02
2018-09-21T13:29:56.654Z,94880.92
2018-09-21T13:32:25.460Z,94879.02
2018-09-21T13:34:54.183Z,94874.68
2018-09-21T13:37:22.858Z,94870.95
2018-09-21T13:39:51.594Z,94871.95
2018-09-21T13:42:20.375Z,94870.32
2018-09-21T13:44:49.135Z,94878.08
2018-09-21T13:47:17.828Z,94871.81
2018-09-21T13:49:46.612Z,94872.36
2018-09-21T13:52:15.342Z,94876.47
2018-09-21T13:54:44.140Z,94871.22
2018-09-21T13:57:12.820Z,94872.15
2018-09-21T13:59:41.557Z,94879.28
2018-09-21T14:02:10.264Z,94873.19
2018-09-21T14:04:38.944Z,94871.13
2018-09-21T14:07:07.594Z,94870.80
2018-09-21T14:09:36.316Z,94865.77
2018-09-21T14:12:04.976Z,94868.49
2018-09-21T14:14:33.745Z,94869.55
2018-09-21T14:17:02.524Z,94866.17
2018-09-21T14:19:31.213Z,94869.25
2018-09-21T14:22:00.000Z,94865.19
2018-09-21T14:24:28.726Z,94868.86
2018-09-21T14:26:57.487Z,94869.32
2018-09-21T14:29:26.338Z,94866.59
2018-09-21T14:31:55.094Z,94871.36
2018-09-21T14:34:23.878Z,94862.88
2018-09-21T14:36:52.669Z,94864.30
2018-09-21T14:39:21.376Z,94870.48
2018-09-21T14:41:50.055Z,94871.86
2018-09-21T14:44:18.834Z,94869.80
2018-09-21T14:46:47.509Z,94865.84
2018-09-21T14:49:16.239Z,94863.92
2018-09-21T14:51:45.633Z,94865.58
2018-09-21T14:54:14.529Z,94861.62
2018-09-21T14:56:43.209Z,94865.08
2018-09-21T14:59:11.964Z,94854.59
2018-09-21T15:01:40.775Z,94861.73
2018-09-21T15:04:09.632Z,94859.95
2018-09-21T15:06:38.467Z,94864.22
2018-09-21T15:09:09.259Z,94860.43
2018-09-21T15:11:38.541Z,94856.50
2018-09-21T15:14:07.414Z,94858.77
2018-09-21T15:16:36.409Z,94856.42
2018-09-21T15:19:05.249Z,94858.59
2018-09-21T15:21:34.332Z,94858.61
2018-09-21T15:24:03.359Z,94864.77
2018-09-21T15:26:32.130Z,94859.41
2018-09-21T15:29:00.909Z,94858.33
2018-09-21T15:31:29.613Z,94855.38
2018-09-21T15:33:58.602Z,94850.55
2018-09-21T15:36:27.384Z,94852.16
2018-09-21T15:38:56.109Z,94853.22
2018-09-21T15:41:24.838Z,94852.39
2018-09-21T15:43:53.597Z,94853.42
2018-09-21T15:46:22.308Z,94849.69
2018-09-21T15:48:51.164Z,94842.16
2018-09-21T15:51:19.895Z,94850.49
2018-09-21T15:53:48.851Z,94843.08
2018-09-21T15:56:17.745Z,94844.11
2018-09-21T15:58:46.657Z,94848.05
2018-09-21T16:01:15.436Z,94847.18
2018-09-21T16:03:44.189Z,94840.23
2018-09-21T16:06:13.075Z,94843.36
2018-09-21T16:08:42.655Z,94848.50
2018-09-21T16:11:11.495Z,94848.64
2018-09-21T16:13:40.365Z,94850.03
2018-09-21T16:16:09.213Z,94844.31
2018-09-21T16:18:37.942Z,94840.89
2018-09-21T16:21:06.711Z,94839.77
2018-09-21T16:23:35.519Z,94844.07
2018-09-21T16:26:04.221Z,94846.45
2018-09-21T16:28:32.931Z,94846.17
2018-09-21T16:31:01.746Z,94851.06
2018-09-21T16:33:30.489Z,94845.08
2018-09-21T16:35:59.367Z,94844.62
2018-09-21T16:38:33.655Z,94843.44
2018-09-21T16:41:02.690Z,94837.09
2018-09-21T16:43:31.491Z,94841.66
2018-09-21T16:46:00.223Z,94844.06
2018-09-21T16:48:28.949Z,94834.27
2018-09-21T16:50:57.786Z,94838.66
2018-09-21T16:53:28.214Z,94835.43
2018-09-21T16:55:57.919Z,94842.45
2018-09-21T16:58:26.676Z,94840.55
2018-09-21T17:00:55.434Z,94847.97
2018-09-21T17:03:24.140Z,94852.00
2018-09-21T17:05:52.886Z,94855.98
2018-09-21T17:08:21.585Z,94853.84
2018-09-21T17:10:50.377Z,94847.42
2018-09-21T17:13:19.205Z,94859.23
2018-09-21T17:15:48.118Z,94860.95
2018-09-21T17:18:16.928Z,94857.06
2018-09-21T17:20:45.626Z,94865.42
2018-09-21T17:23:14.346Z,94859.46
2018-09-21T17:25:43.070Z,94868.11
2018-09-21T17:28:12.724Z,94865.47
2018-09-21T17:30:41.482Z,94872.85
2018-09-21T17:33:10.459Z,94864.77
2018-09-21T17:35:39.275Z,94866.34
2018-09-21T17:38:08.018Z,94870.11
2018-09-21T17:40:36.758Z,94871.53
2018-09-21T17:43:05.598Z,94879.30
2018-09-21T17:45:34.384Z,94883.08
2018-09-21T17:48:03.162Z,94869.64
2018-09-21T17:50:32.203Z,94882.70
2018-09-21T17:53:00.988Z,94876.78
2018-09-21T17:55:29.761Z,94880.80
2018-09-21T17:57:58.510Z,94881.77
2018-09-21T18:00:27.334Z,94881.33
2018-09-21T18:02:56.058Z,94882.01
2018-09-21T18:05:24.998Z,94887.88
2018-09-21T18:07:53.732Z,94886.50
2018-09-21T18:10:22.448Z,94886.32
2018-09-21T18:12:51.189Z,94891.26
